Rio Verde, Arizona
Current Conditions -  °F | °C
As of 10:53 AM on Thursday 29 Jan 2015 (Local Time) from KSDL Reporting Station
Clear Clear  
Wind Chill: 64°   Ceiling: Unl
Heat Index: 64°   Visibility: 10mi
Dew Point: 46°   Wind: 0mph
Humidity: 52%   Direction: NA
Pressure: 30.1"   Gusts: NA
Location:  33.72°N, 111.67°W
Report Text: KSDL 291753Z 00000KT 10SM CLR 18/08 A3010 RMK AO2 SLP181 T01780078 10178 20133 53010
Loading
Personal Weather Stations






























Interactive Weather Map New forecast layout! Learn more

10-Day Weather Forecast

Advertisements
Track Severe Weather on mobile